createdAt,value
2018-12-17T00:00:31.391Z,0.70
2018-12-17T00:02:59.767Z,0.70
2018-12-17T00:05:27.922Z,0.70
2018-12-17T00:07:56.215Z,0.70
2018-12-17T00:10:24.353Z,0.70
2018-12-17T00:12:52.571Z,0.60
2018-12-17T00:15:20.795Z,0.50
2018-12-17T00:17:48.938Z,0.50
2018-12-17T00:20:17.078Z,0.50
2018-12-17T00:22:45.215Z,0.40
2018-12-17T00:25:13.566Z,0.40
2018-12-17T00:27:41.715Z,0.40
2018-12-17T00:30:10.215Z,0.40
2018-12-17T00:32:38.452Z,0.40
2018-12-17T00:35:06.883Z,0.40
2018-12-17T00:37:35.015Z,0.40
2018-12-17T00:40:04.763Z,0.50
2018-12-17T00:42:32.883Z,0.50
2018-12-17T00:45:01.008Z,0.50
2018-12-17T00:47:29.232Z,0.50
2018-12-17T00:49:57.364Z,0.50
2018-12-17T00:52:25.487Z,0.50
2018-12-17T00:54:53.652Z,0.50
2018-12-17T00:57:21.787Z,0.50
2018-12-17T00:59:49.939Z,0.50
2018-12-17T01:02:18.156Z,0.60
2018-12-17T01:04:46.295Z,0.50
2018-12-17T01:07:14.443Z,0.50
2018-12-17T01:09:42.660Z,0.50
2018-12-17T01:12:10.876Z,0.40
2018-12-17T01:14:39.015Z,0.30
2018-12-17T01:17:07.164Z,0.30
2018-12-17T01:19:35.326Z,0.30
2018-12-17T01:22:03.567Z,0.30
2018-12-17T01:24:31.728Z,0.30
2018-12-17T01:26:59.859Z,0.30
2018-12-17T01:29:28.001Z,0.20
2018-12-17T01:31:56.211Z,0.30
2018-12-17T01:34:24.347Z,0.30
2018-12-17T01:36:52.488Z,0.30
2018-12-17T01:39:20.621Z,0.30
2018-12-17T01:41:48.774Z,0.40
2018-12-17T01:44:16.955Z,0.40
2018-12-17T01:46:45.088Z,0.30
2018-12-17T01:49:13.247Z,0.20
2018-12-17T01:51:41.408Z,0.20
2018-12-17T01:54:09.612Z,0.20
2018-12-17T01:56:37.877Z,0.20
2018-12-17T01:59:06.139Z,0.20
2018-12-17T02:01:34.508Z,0.10
2018-12-17T02:04:02.719Z,0.00
2018-12-17T02:06:30.936Z,0.00
2018-12-17T02:08:59.080Z,0.00
2018-12-17T02:11:27.348Z,0.00
2018-12-17T02:13:55.611Z,0.00
2018-12-17T02:16:23.820Z,-0.10
2018-12-17T02:18:52.108Z,-0.10
2018-12-17T02:21:20.374Z,-0.10
2018-12-17T02:23:48.486Z,-0.10
2018-12-17T02:26:16.667Z,-0.20
2018-12-17T02:28:44.895Z,-0.20
2018-12-17T02:31:13.106Z,-0.20
2018-12-17T02:33:41.481Z,-0.20
2018-12-17T02:36:09.863Z,-0.30
2018-12-17T02:38:38.080Z,-0.20
2018-12-17T02:41:06.297Z,-0.20
2018-12-17T02:43:34.552Z,-0.30
2018-12-17T02:46:02.871Z,-0.30
2018-12-17T02:48:31.239Z,-0.30
2018-12-17T02:50:59.480Z,-0.30
2018-12-17T02:53:27.614Z,-0.30
2018-12-17T02:55:55.830Z,-0.30
2018-12-17T02:58:24.352Z,-0.30
2018-12-17T03:00:52.613Z,-0.30
2018-12-17T03:03:20.873Z,-0.30
2018-12-17T03:05:49.109Z,-0.40
2018-12-17T03:08:17.343Z,-0.50
2018-12-17T03:10:45.654Z,-0.50
2018-12-17T03:13:13.996Z,-0.50
2018-12-17T03:15:42.208Z,-0.40
2018-12-17T03:18:10.490Z,-0.40
2018-12-17T03:20:38.679Z,-0.50
2018-12-17T03:23:06.864Z,-0.50
2018-12-17T03:25:35.099Z,-0.50
2018-12-17T03:28:03.283Z,-0.50
2018-12-17T03:30:31.591Z,-0.50
2018-12-17T03:33:00.270Z,-0.50
2018-12-17T03:35:28.666Z,-0.50
2018-12-17T03:37:56.972Z,-0.50
2018-12-17T03:40:25.215Z,-0.50
2018-12-17T03:42:53.437Z,-0.50
2018-12-17T03:45:21.671Z,-0.50
2018-12-17T03:47:49.853Z,-0.50
2018-12-17T03:50:18.014Z,-0.50
2018-12-17T03:52:46.191Z,-0.50
2018-12-17T03:55:14.483Z,-0.40
2018-12-17T03:57:42.636Z,-0.40
2018-12-17T04:00:10.847Z,-0.50
2018-12-17T04:02:39.035Z,-0.50
2018-12-17T04:05:07.358Z,-0.60
2018-12-17T04:07:35.511Z,-0.50
2018-12-17T04:10:04.153Z,-0.60
2018-12-17T04:12:32.326Z,-0.60
2018-12-17T04:15:00.599Z,-0.60
2018-12-17T04:17:28.740Z,-0.60
2018-12-17T04:19:56.908Z,-0.60
2018-12-17T04:22:25.090Z,-0.60
2018-12-17T04:24:53.337Z,-0.60
2018-12-17T04:27:21.488Z,-0.60
2018-12-17T04:29:49.673Z,-0.60
2018-12-17T04:32:18.018Z,-0.60
2018-12-17T04:34:46.192Z,-0.70
2018-12-17T04:37:14.375Z,-0.70
2018-12-17T04:39:42.788Z,-0.80
2018-12-17T04:42:11.083Z,-0.80
2018-12-17T04:47:38.333Z,-0.80
2018-12-17T04:50:06.645Z,-0.80
2018-12-17T04:52:34.851Z,-0.80
2018-12-17T04:55:03.249Z,-0.80
2018-12-17T04:57:31.473Z,-0.80
2018-12-17T04:59:59.616Z,-0.90
2018-12-17T05:02:27.785Z,-1.00
2018-12-17T05:04:55.908Z,-1.00
2018-12-17T05:07:24.049Z,-1.00
2018-12-17T05:09:52.194Z,-1.00
2018-12-17T05:12:20.692Z,-1.00
2018-12-17T05:14:48.877Z,-1.00
2018-12-17T05:17:17.041Z,-1.00
2018-12-17T05:19:45.267Z,-1.00
2018-12-17T05:22:13.495Z,-1.00
2018-12-17T05:24:41.632Z,-1.00
2018-12-17T05:27:09.763Z,-1.00
2018-12-17T05:29:37.904Z,-1.00
2018-12-17T05:32:06.083Z,-1.00
2018-12-17T05:34:34.223Z,-1.00
2018-12-17T05:37:02.412Z,-1.00
2018-12-17T05:39:30.653Z,-1.00
2018-12-17T05:41:58.811Z,-1.00
2018-12-17T05:44:26.993Z,-1.00
2018-12-17T05:46:55.199Z,-1.00
2018-12-17T05:49:23.375Z,-1.00
2018-12-17T05:51:51.623Z,-0.90
2018-12-17T05:54:19.864Z,-0.90
2018-12-17T05:56:48.103Z,-0.90
2018-12-17T05:59:16.360Z,-0.90
2018-12-17T06:01:44.518Z,-0.90
2018-12-17T06:04:12.728Z,-0.90
2018-12-17T06:06:40.982Z,-0.90
2018-12-17T06:09:12.297Z,-0.90
2018-12-17T06:11:40.720Z,-0.90
2018-12-17T06:14:08.945Z,-0.90
2018-12-17T06:16:37.200Z,-1.00
2018-12-17T06:19:05.436Z,-0.90
2018-12-17T06:21:33.587Z,-1.00
2018-12-17T06:24:01.908Z,-1.00
2018-12-17T06:26:30.163Z,-1.00
2018-12-17T06:28:58.307Z,-1.00
2018-12-17T06:31:26.510Z,-1.00
2018-12-17T06:33:54.665Z,-1.00
2018-12-17T06:36:22.923Z,-1.00
2018-12-17T06:38:51.086Z,-1.00
2018-12-17T06:41:19.227Z,-0.90
2018-12-17T06:43:47.401Z,-0.90
2018-12-17T06:46:15.551Z,-0.90
2018-12-17T06:48:43.705Z,-0.90
2018-12-17T06:51:11.848Z,-1.00
2018-12-17T06:53:40.083Z,-1.00
2018-12-17T06:56:08.216Z,-1.00
2018-12-17T06:58:36.445Z,-1.00
2018-12-17T07:01:04.595Z,-1.00
2018-12-17T07:03:32.769Z,-1.10
2018-12-17T07:06:00.944Z,-1.10
2018-12-17T07:08:29.115Z,-1.10
2018-12-17T07:10:57.268Z,-1.00
2018-12-17T07:13:25.404Z,-1.00
2018-12-17T07:15:53.556Z,-1.00
2018-12-17T07:18:21.719Z,-1.10
2018-12-17T07:20:49.974Z,-1.20
2018-12-17T07:23:18.213Z,-1.20
2018-12-17T07:25:46.422Z,-1.10
2018-12-17T07:28:14.572Z,-1.10
2018-12-17T07:30:42.725Z,-1.10
2018-12-17T07:33:10.902Z,-1.00
2018-12-17T07:35:39.035Z,-1.00
2018-12-17T07:38:07.326Z,-0.90
2018-12-17T07:40:35.523Z,-1.00
2018-12-17T07:43:03.767Z,-0.90
2018-12-17T07:45:31.927Z,-0.90
2018-12-17T07:48:00.143Z,-0.80
2018-12-17T07:50:28.383Z,-0.70
2018-12-17T07:52:56.551Z,-0.60
2018-12-17T07:55:24.771Z,-0.60
2018-12-17T07:57:52.936Z,-0.70
2018-12-17T08:00:21.095Z,-0.80
2018-12-17T08:02:49.267Z,-0.70
2018-12-17T08:05:17.432Z,-0.70
2018-12-17T08:07:45.599Z,-0.70
2018-12-17T08:10:13.743Z,-0.70
2018-12-17T08:12:41.896Z,-0.70
2018-12-17T08:15:10.209Z,-0.70
2018-12-17T08:17:38.921Z,-0.60
2018-12-17T08:20:07.195Z,-0.60
2018-12-17T08:22:35.495Z,-0.70
2018-12-17T08:25:03.783Z,-0.60
2018-12-17T08:27:31.932Z,-0.70
2018-12-17T08:30:03.919Z,-0.70
2018-12-17T08:32:30.356Z,-0.70
2018-12-17T08:34:58.527Z,-0.70
2018-12-17T08:37:26.723Z,-0.70
2018-12-17T08:39:54.931Z,-0.60
2018-12-17T08:42:23.123Z,-0.60
2018-12-17T08:44:51.341Z,-0.50
2018-12-17T08:47:19.532Z,-0.50
2018-12-17T08:49:47.790Z,-0.50
2018-12-17T08:52:16.043Z,-0.40
2018-12-17T08:54:44.526Z,-0.40
2018-12-17T08:57:12.768Z,-0.30
2018-12-17T08:59:41.187Z,-0.30
2018-12-17T09:02:09.472Z,-0.20
2018-12-17T09:04:37.629Z,-0.20
2018-12-17T09:07:05.977Z,-0.20
2018-12-17T09:09:34.266Z,-0.10
2018-12-17T09:12:02.441Z,-0.10
2018-12-17T09:14:30.613Z,0.00
2018-12-17T09:16:58.824Z,0.00
2018-12-17T09:19:27.001Z,0.10
2018-12-17T09:21:55.157Z,0.10
2018-12-17T09:24:23.313Z,0.20
2018-12-17T09:26:51.477Z,0.20
2018-12-17T09:29:19.772Z,0.30
2018-12-17T09:31:47.979Z,0.40
2018-12-17T09:34:16.152Z,0.50
2018-12-17T09:36:44.399Z,0.60
2018-12-17T09:39:12.570Z,0.70
2018-12-17T09:41:40.732Z,0.80
2018-12-17T09:44:08.912Z,1.00
2018-12-17T09:46:37.167Z,1.50
2018-12-17T09:49:05.352Z,2.10
2018-12-17T09:51:33.583Z,2.80
2018-12-17T09:54:01.760Z,3.40
2018-12-17T09:56:29.912Z,3.90
2018-12-17T09:58:58.043Z,4.40
2018-12-17T10:01:26.179Z,4.90
2018-12-17T10:03:54.325Z,5.00
2018-12-17T10:06:22.632Z,4.70
2018-12-17T10:08:50.772Z,4.40
2018-12-17T10:11:19.020Z,4.00
2018-12-17T10:13:47.205Z,3.60
2018-12-17T10:16:15.374Z,3.30
2018-12-17T10:18:43.544Z,3.10
2018-12-17T10:21:11.739Z,2.70
2018-12-17T10:23:40.351Z,2.60
2018-12-17T10:26:08.704Z,2.60
2018-12-17T10:28:36.888Z,2.40
2018-12-17T10:31:05.152Z,2.30
2018-12-17T10:33:33.331Z,2.20
2018-12-17T10:36:01.596Z,2.20
2018-12-17T10:38:29.737Z,2.30
2018-12-17T10:40:57.912Z,2.20
2018-12-17T10:43:26.166Z,2.10
2018-12-17T10:45:54.393Z,2.20
2018-12-17T10:48:23.952Z,2.20
2018-12-17T10:50:52.189Z,2.30
2018-12-17T10:53:20.349Z,2.40
2018-12-17T10:55:48.524Z,2.90
2018-12-17T10:58:16.775Z,3.50
2018-12-17T11:00:50.251Z,4.00
2018-12-17T11:03:22.691Z,4.40
2018-12-17T11:05:52.243Z,5.10
2018-12-17T11:08:20.375Z,6.30
2018-12-17T11:10:48.523Z,7.80
2018-12-17T11:13:16.660Z,8.50
2018-12-17T11:15:44.796Z,8.60
2018-12-17T11:18:13.016Z,8.80
2018-12-17T11:20:41.224Z,9.40
2018-12-17T11:23:09.369Z,10.00
2018-12-17T11:25:37.576Z,10.60
2018-12-17T11:28:05.729Z,10.20
2018-12-17T11:30:33.921Z,9.20
2018-12-17T11:33:02.082Z,8.00
2018-12-17T11:35:30.319Z,7.20
2018-12-17T11:37:58.455Z,6.50
2018-12-17T11:40:26.618Z,6.00
2018-12-17T11:42:54.767Z,5.90
2018-12-17T11:45:23.069Z,5.90
2018-12-17T11:47:51.226Z,6.30
2018-12-17T11:50:19.396Z,6.20
2018-12-17T11:52:47.515Z,6.50
2018-12-17T11:55:15.743Z,6.70
2018-12-17T11:57:55.402Z,6.30
2018-12-17T12:00:25.555Z,5.90
2018-12-17T12:02:59.140Z,5.40
2018-12-17T12:05:23.923Z,5.00
2018-12-17T12:07:52.069Z,4.80
2018-12-17T12:10:20.327Z,4.70
2018-12-17T12:12:48.570Z,4.70
2018-12-17T12:15:16.732Z,4.60
2018-12-17T12:17:44.887Z,4.50
2018-12-17T12:20:13.175Z,4.50
2018-12-17T12:22:41.312Z,4.40
2018-12-17T12:25:09.521Z,4.30
2018-12-17T12:27:38.794Z,4.30
2018-12-17T12:30:08.576Z,4.30
2018-12-17T12:32:38.324Z,4.30
2018-12-17T12:35:08.513Z,4.40
2018-12-17T12:37:36.758Z,4.40
2018-12-17T12:40:05.311Z,4.40
2018-12-17T12:42:33.575Z,4.30
2018-12-17T12:45:01.912Z,4.20
2018-12-17T12:47:30.145Z,4.10
2018-12-17T12:49:58.388Z,4.10
2018-12-17T12:52:26.539Z,4.10
2018-12-17T12:54:55.084Z,4.20
2018-12-17T12:57:23.301Z,5.20
2018-12-17T12:59:51.456Z,5.80
2018-12-17T13:02:19.647Z,5.80
2018-12-17T13:04:47.870Z,5.60
2018-12-17T13:07:16.036Z,5.40
2018-12-17T13:09:44.204Z,5.20
2018-12-17T13:12:12.352Z,5.10
2018-12-17T13:14:40.503Z,5.00
2018-12-17T13:17:13.962Z,5.00
2018-12-17T13:19:42.148Z,5.00
2018-12-17T13:22:10.322Z,5.10
2018-12-17T13:24:38.503Z,5.10
2018-12-17T13:27:06.652Z,5.10
2018-12-17T13:29:34.794Z,5.00
2018-12-17T13:32:03.051Z,5.00
2018-12-17T13:34:31.273Z,4.90
2018-12-17T13:37:01.066Z,4.90
2018-12-17T13:39:29.337Z,4.60
2018-12-17T13:41:57.490Z,4.90
2018-12-17T13:44:25.668Z,4.90
2018-12-17T13:46:53.823Z,4.80
2018-12-17T13:49:22.332Z,4.80
2018-12-17T13:51:55.985Z,4.80
2018-12-17T13:54:24.160Z,4.80
2018-12-17T13:56:52.320Z,4.70
2018-12-17T13:59:20.494Z,4.70
2018-12-17T14:01:51.575Z,4.70
2018-12-17T14:04:18.911Z,4.70
2018-12-17T14:06:47.508Z,4.70
2018-12-17T14:09:16.613Z,4.70
2018-12-17T14:11:46.744Z,4.70
2018-12-17T14:14:15.335Z,4.70
2018-12-17T14:16:48.892Z,4.70
2018-12-17T14:19:19.900Z,4.70
2018-12-17T14:21:53.617Z,4.70
2018-12-17T14:24:21.800Z,4.70
2018-12-17T14:26:50.438Z,4.70
2018-12-17T14:29:18.612Z,4.70
2018-12-17T14:31:46.834Z,4.70
2018-12-17T14:34:15.009Z,4.70
2018-12-17T14:36:43.241Z,4.80
2018-12-17T14:39:11.404Z,4.80
2018-12-17T14:41:39.547Z,4.80
2018-12-17T14:44:13.387Z,4.80
2018-12-17T14:46:47.021Z,4.80
2018-12-17T14:49:15.260Z,4.80
2018-12-17T14:51:43.482Z,4.80
2018-12-17T14:54:11.666Z,4.90
2018-12-17T14:56:40.008Z,4.90
2018-12-17T14:59:08.281Z,4.90
2018-12-17T15:01:36.451Z,4.90
2018-12-17T15:04:04.813Z,4.90
2018-12-17T15:06:33.103Z,4.90
2018-12-17T15:09:01.292Z,4.90
2018-12-17T15:11:29.445Z,4.80
2018-12-17T15:13:57.612Z,4.80
2018-12-17T15:16:25.739Z,4.80
2018-12-17T15:18:53.964Z,4.80
2018-12-17T15:21:22.123Z,4.80
2018-12-17T15:23:50.284Z,4.70
2018-12-17T15:26:18.459Z,4.70
2018-12-17T15:28:46.739Z,4.70
2018-12-17T15:31:15.071Z,4.60
2018-12-17T15:33:43.360Z,4.50
2018-12-17T15:36:11.497Z,4.50
2018-12-17T15:38:39.683Z,4.50
2018-12-17T15:41:07.846Z,4.50
2018-12-17T15:43:36.043Z,4.50
2018-12-17T15:46:04.263Z,4.50
2018-12-17T15:48:32.506Z,4.50
2018-12-17T15:51:00.762Z,4.50
2018-12-17T15:53:28.904Z,4.50
2018-12-17T15:55:57.119Z,4.50
2018-12-17T15:58:25.282Z,4.50
2018-12-17T16:00:53.666Z,4.50
2018-12-17T16:03:22.051Z,4.50
2018-12-17T16:05:50.209Z,4.40
2018-12-17T16:08:18.387Z,4.40
2018-12-17T16:10:46.536Z,4.30
2018-12-17T16:13:14.712Z,4.20
2018-12-17T16:15:42.884Z,4.20
2018-12-17T16:18:11.087Z,4.10
2018-12-17T16:20:39.318Z,4.00
2018-12-17T16:23:07.439Z,4.00
2018-12-17T16:25:35.568Z,4.20
2018-12-17T16:28:03.811Z,4.10
2018-12-17T16:30:31.947Z,4.10
2018-12-17T16:33:00.129Z,4.10
2018-12-17T16:35:28.371Z,4.00
2018-12-17T16:37:56.495Z,4.00
2018-12-17T16:40:24.968Z,3.90
2018-12-17T16:42:53.283Z,3.90
2018-12-17T16:45:21.534Z,3.80
2018-12-17T16:47:49.720Z,3.70
2018-12-17T16:50:17.966Z,3.60
2018-12-17T16:52:46.136Z,3.50
2018-12-17T16:55:14.346Z,3.50
2018-12-17T16:57:42.506Z,3.50
2018-12-17T17:00:10.663Z,3.50
2018-12-17T17:14:50.400Z,3.50
2018-12-17T17:17:19.297Z,3.40
2018-12-17T17:19:50.955Z,3.40
2018-12-17T17:45:48.848Z,3.40
2018-12-17T18:10:39.514Z,3.30
2018-12-17T18:13:07.761Z,3.30
2018-12-17T18:15:35.998Z,3.30
2018-12-17T18:18:04.307Z,3.30
2018-12-17T18:20:32.690Z,3.30
2018-12-17T18:23:01.047Z,3.20
2018-12-17T18:25:29.239Z,3.20
2018-12-17T18:27:57.515Z,3.20
2018-12-17T18:30:25.719Z,3.20
2018-12-17T18:32:53.899Z,3.20
2018-12-17T18:35:22.188Z,3.20
2018-12-17T18:37:50.415Z,3.20
2018-12-17T18:40:18.592Z,3.20
2018-12-17T18:42:46.854Z,3.20
2018-12-17T18:45:15.085Z,3.20
2018-12-17T18:47:43.355Z,3.20
2018-12-17T18:50:11.775Z,3.10
2018-12-17T18:52:40.015Z,3.20
2018-12-17T18:55:08.344Z,3.10
2018-12-17T18:57:36.584Z,3.20
2018-12-17T19:00:05.600Z,3.10
2018-12-17T19:02:33.873Z,3.10
2018-12-17T19:05:02.135Z,3.10
2018-12-17T19:07:30.305Z,3.10
2018-12-17T19:09:58.507Z,3.10
2018-12-17T19:12:26.797Z,3.10
2018-12-17T19:14:54.976Z,3.20
2018-12-17T19:17:23.284Z,3.20
2018-12-17T19:19:51.507Z,3.30
2018-12-17T19:22:19.756Z,3.30
2018-12-17T19:24:48.065Z,3.40
2018-12-17T19:34:38.177Z,3.50
2018-12-17T19:37:06.440Z,3.50
2018-12-17T19:45:18.807Z,3.50
2018-12-17T19:47:47.130Z,3.40
2018-12-17T19:50:15.353Z,3.40
2018-12-17T19:52:43.715Z,3.50
2018-12-17T19:55:11.984Z,3.40
2018-12-17T19:57:40.269Z,3.40
2018-12-17T20:00:09.966Z,3.50
2018-12-17T20:02:38.251Z,3.50
2018-12-17T20:05:06.758Z,3.50
2018-12-17T20:07:35.024Z,3.50
2018-12-17T20:10:03.737Z,3.70
2018-12-17T20:12:31.957Z,3.60
2018-12-17T20:15:00.281Z,3.60
2018-12-17T20:17:28.599Z,3.50
2018-12-17T20:19:56.900Z,3.50
2018-12-17T20:22:25.161Z,3.50
2018-12-17T20:24:53.460Z,3.60
2018-12-17T20:27:21.654Z,3.60
2018-12-17T20:29:50.508Z,3.60
2018-12-17T20:32:19.732Z,3.50
2018-12-17T20:34:47.935Z,3.50
2018-12-17T20:37:16.971Z,3.40
2018-12-17T20:45:45.104Z,3.40
2018-12-17T20:48:13.368Z,3.30
2018-12-17T20:50:41.572Z,3.30
2018-12-17T20:56:43.728Z,3.40
2018-12-17T20:59:36.381Z,3.20
2018-12-17T21:15:23.492Z,3.00
2018-12-17T21:17:51.677Z,3.00
2018-12-17T21:20:20.047Z,3.00
2018-12-17T21:22:48.283Z,3.00
2018-12-17T21:25:16.624Z,3.10
2018-12-17T21:27:44.812Z,3.10
2018-12-17T21:30:13.082Z,3.00
2018-12-17T21:32:41.425Z,3.00
2018-12-17T21:35:09.724Z,2.90
2018-12-17T21:37:37.971Z,2.90
2018-12-17T21:40:07.291Z,2.90
2018-12-17T21:42:35.597Z,2.90
2018-12-17T21:45:05.316Z,2.80
2018-12-17T21:47:33.563Z,2.80
2018-12-17T21:50:01.772Z,2.80
2018-12-17T21:52:29.953Z,2.80
2018-12-17T21:54:58.171Z,2.70
2018-12-17T21:57:26.330Z,2.70
2018-12-17T21:59:54.515Z,2.60
2018-12-17T22:02:22.700Z,2.60
2018-12-17T22:04:50.864Z,2.50
2018-12-17T22:07:19.038Z,2.50
2018-12-17T22:09:47.190Z,2.50
2018-12-17T22:12:15.375Z,2.40
2018-12-17T22:14:43.524Z,2.40
2018-12-17T22:17:18.071Z,2.30
2018-12-17T22:19:46.206Z,2.30
2018-12-17T22:22:14.354Z,2.40
2018-12-17T22:24:42.518Z,2.30
2018-12-17T22:27:10.665Z,2.20
2018-12-17T22:29:38.907Z,2.10
2018-12-17T22:32:07.109Z,2.10
2018-12-17T22:34:35.244Z,2.10
2018-12-17T22:37:03.579Z,2.20
2018-12-17T22:39:31.740Z,2.10
2018-12-17T22:42:00.369Z,2.10
2018-12-17T22:44:28.504Z,2.00
2018-12-17T22:46:56.672Z,2.10
2018-12-17T22:49:24.815Z,2.00
2018-12-17T22:51:52.988Z,2.00
2018-12-17T22:54:21.203Z,2.00
2018-12-17T22:56:49.427Z,2.00
2018-12-17T22:59:17.607Z,1.90
2018-12-17T23:01:45.783Z,1.90
2018-12-17T23:04:14.000Z,1.80
2018-12-17T23:06:42.240Z,1.80
2018-12-17T23:09:09.520Z,1.80
2018-12-17T23:11:54.697Z,1.70
2018-12-17T23:14:34.399Z,1.70
2018-12-17T23:17:14.056Z,1.70
2018-12-17T23:19:44.299Z,1.70
2018-12-17T23:22:12.752Z,1.60
2018-12-17T23:24:41.083Z,1.60
2018-12-17T23:27:09.513Z,1.50
2018-12-17T23:29:37.711Z,1.50
2018-12-17T23:32:05.877Z,1.50
2018-12-17T23:34:34.143Z,1.40
2018-12-17T23:37:02.292Z,1.40
2018-12-17T23:39:30.484Z,1.30
2018-12-17T23:41:58.631Z,1.30
2018-12-17T23:44:26.824Z,1.30
2018-12-17T23:46:55.084Z,1.40
2018-12-17T23:49:23.280Z,1.30
2018-12-17T23:51:51.410Z,1.20
2018-12-17T23:54:19.525Z,1.20
2018-12-17T23:56:47.659Z,1.10
2018-12-17T23:59:15.799Z,1.10
